Time;durP1;ratioP1;P1;durP2;ratioP2;P2;SDS_P1;SDS_P2;PMS_P1;PMS_P2;Temp;Humidity;BMP_temperature;BMP_pressure;BME280_temperature;BME280_humidity;BME280_pressure;Samples;Min_cycle;Max_cycle;Signal;HPM_P1;HPM_P2
2021/07/18 00:00:08;;;;;;;3.63;1.50;;;20.60;99.90;;;;;;4795816;29;20502;-79
2021/07/18 00:02:38;;;;;;;8.27;5.37;;;20.60;99.90;;;;;;4837983;29;20472;-79
2021/07/18 00:05:24;;;;;;;7.83;5.40;;;20.50;99.90;;;;;;4778784;29;20509;-79
2021/07/18 00:07:54;;;;;;;2.90;2.50;;;20.40;99.90;;;;;;4719247;30;20476;-79
2021/07/18 00:10:52;;;;;;;1.90;1.80;;;20.30;99.90;;;;;;4815022;29;20472;-79
2021/07/18 00:13:40;;;;;;;1.60;1.50;;;20.30;99.90;;;;;;4817872;29;20524;-78
2021/07/18 00:16:06;;;;;;;1.70;1.60;;;20.30;99.90;;;;;;4813168;29;20464;-79
2021/07/18 00:18:42;;;;;;;2.07;1.90;;;20.30;99.90;;;;;;4812036;29;20467;-79
2021/07/18 00:21:09;;;;;;;2.17;1.80;;;20.30;99.90;;;;;;4811258;29;20461;-79
2021/07/18 00:23:35;;;;;;;1.33;1.23;;;20.30;99.90;;;;;;4803945;29;20532;-79
2021/07/18 00:26:01;;;;;;;3.13;1.67;;;20.30;99.90;;;;;;4791032;29;20250;-79
2021/07/18 00:28:27;;;;;;;2.43;1.80;;;20.30;99.90;;;;;;4812223;29;20472;-79
2021/07/18 00:30:53;;;;;;;2.03;1.93;;;20.30;99.90;;;;;;4813761;29;20473;-79
2021/07/18 00:33:18;;;;;;;1.93;1.80;;;20.20;99.90;;;;;;4787983;29;20483;-78
2021/07/18 00:35:58;;;;;;;1.60;1.50;;;20.20;99.90;;;;;;4785831;29;20224;-78
2021/07/18 00:38:25;;;;;;;5.27;1.80;;;20.20;99.90;;;;;;4822206;29;20223;-79
2021/07/18 00:41:03;;;;;;;3.07;1.60;;;20.10;99.90;;;;;;4787480;29;20472;-77
2021/07/18 00:43:30;;;;;;;2.17;1.83;;;20.00;99.90;;;;;;4813830;29;20479;-79
2021/07/18 00:49:32;;;;;;;2.97;2.10;;;19.90;99.90;;;;;;4808298;29;20492;-79
2021/07/18 00:52:54;;;;;;;;;;;;;;;;;;;;;
2021/07/18 00:55:47;;;;;;;2.70;2.27;;;19.90;99.90;;;;;;4821404;29;20467;-79
2021/07/18 00:58:24;;;;;;;3.90;2.00;;;19.80;99.90;;;;;;4817574;29;20476;-79
2021/07/18 01:01:01;;;;;;;2.83;2.00;;;19.90;99.90;;;;;;4775899;29;20489;-79
2021/07/18 01:03:28;;;;;;;3.20;2.90;;;19.90;99.90;;;;;;4811195;29;20576;-79
2021/07/18 01:06:45;;;;;;;1.73;1.60;;;19.80;99.90;;;;;;4812152;29;20829;-79
2021/07/18 01:09:12;;;;;;;2.30;1.60;;;19.80;99.90;;;;;;4794278;29;20922;-78
2021/07/18 01:11:52;;;;;;;;;;;;;;;;;;;;;
2021/07/18 01:14:57;;;;;;;1.80;1.70;;;19.70;99.90;;;;;;4817431;29;20480;-79
2021/07/18 01:18:21;;;;;;;;;;;;;;;;;;;;;
2021/07/18 01:21:24;;;;;;;2.30;1.43;;;19.60;99.90;;;;;;4820304;29;20478;-77
2021/07/18 01:23:58;;;;;;;2.20;1.77;;;19.60;99.90;;;;;;4800339;29;20480;-78
2021/07/18 01:26:42;;;;;;;2.23;1.30;;;19.60;99.90;;;;;;4778383;29;20852;-79
2021/07/18 01:30:01;;;;;;;2.17;1.47;;;19.50;99.90;;;;;;4791434;29;20496;-79
2021/07/18 01:32:10;;;;;;;1.70;1.60;;;19.50;99.90;;;;;;4815885;29;20452;-79
2021/07/18 01:34:41;;;;;;;2.00;1.90;;;19.30;99.90;;;;;;4809874;29;20469;-79
2021/07/18 01:37:07;;;;;;;2.40;1.53;;;19.30;99.90;;;;;;4817526;29;20535;-79
2021/07/18 01:39:34;;;;;;;1.57;1.47;;;19.20;99.90;;;;;;4826441;29;20579;-79
2021/07/18 01:42:22;;;;;;;1.73;1.60;;;19.20;99.90;;;;;;4797882;29;20483;-78
2021/07/18 01:44:59;;;;;;;2.70;1.80;;;19.10;99.90;;;;;;4822840;29;20816;-78
2021/07/18 01:48:15;;;;;;;2.50;2.20;;;19.10;99.90;;;;;;4817141;29;20452;-79
2021/07/18 01:50:44;;;;;;;1.80;1.70;;;19.10;99.90;;;;;;4805701;29;20499;-79
2021/07/18 01:53:58;;;;;;;;;;;;;;;;;;;;;
2021/07/18 01:56:47;;;;;;;2.60;2.03;;;19.00;99.90;;;;;;4817934;29;20473;-79
2021/07/18 01:59:24;;;;;;;2.20;2.00;;;19.00;99.90;;;;;;4805018;29;20472;-79
2021/07/18 02:01:53;;;;;;;1.90;1.70;;;19.00;99.90;;;;;;4801168;29;20456;-78
2021/07/18 02:05:08;;;;;;;;;;;;;;;;;;;;;
2021/07/18 02:07:42;;;;;;;2.47;2.10;;;19.00;99.90;;;;;;4841626;29;20460;-79
2021/07/18 02:10:39;;;;;;;3.13;1.70;;;19.00;99.90;;;;;;4790200;29;20488;-79
2021/07/18 02:13:06;;;;;;;1.83;1.70;;;18.90;99.90;;;;;;4811993;29;20464;-79
2021/07/18 02:15:32;;;;;;;1.47;1.37;;;18.90;99.90;;;;;;4802754;29;20478;-79
2021/07/18 02:18:44;;;;;;;4.40;1.70;;;18.80;99.90;;;;;;4789184;29;20472;-79
2021/07/18 02:21:11;;;;;;;1.50;1.40;;;18.80;99.90;;;;;;4806424;29;20311;-79
2021/07/18 02:24:10;;;;;;;4.83;1.90;;;18.80;99.90;;;;;;4810033;29;20472;-79
2021/07/18 02:26:39;;;;;;;3.30;2.23;;;18.80;99.90;;;;;;4824999;29;21008;-79
2021/07/18 02:30:25;;;;;;;2.77;1.83;;;18.80;99.90;;;;;;4766680;29;20573;-79
2021/07/18 02:33:18;;;;;;;2.60;1.70;;;18.70;99.90;;;;;;4772940;29;20532;-78
2021/07/18 02:35:45;;;;;;;2.70;1.73;;;18.60;99.90;;;;;;4812982;29;20469;-78
2021/07/18 02:38:11;;;;;;;1.83;1.73;;;18.70;99.90;;;;;;4822288;29;20460;-77
2021/07/18 02:41:07;;;;;;;2.10;1.93;;;18.60;99.90;;;;;;4799233;29;20254;-78
2021/07/18 02:44:14;;;;;;;1.70;1.60;;;18.50;99.90;;;;;;4782662;29;20225;-78
2021/07/18 02:46:43;;;;;;;1.87;1.73;;;18.50;99.90;;;;;;4806633;29;20483;-78
2021/07/18 02:49:10;;;;;;;2.30;2.10;;;18.40;99.90;;;;;;4802582;29;20457;-78
2021/07/18 02:52:08;;;;;;;2.07;1.87;;;18.40;99.90;;;;;;4794620;29;20520;-78
2021/07/18 02:54:45;;;;;;;1.70;1.60;;;18.40;99.90;;;;;;4779670;29;20469;-78
2021/07/18 02:57:13;;;;;;;5.10;1.87;;;18.40;99.90;;;;;;4789011;29;20958;-78
2021/07/18 02:59:42;;;;;;;1.90;1.80;;;18.40;99.90;;;;;;4809095;29;20476;-78
2021/07/18 03:02:08;;;;;;;2.93;1.70;;;18.30;99.90;;;;;;4812147;29;20236;-78
2021/07/18 03:04:38;;;;;;;1.60;1.50;;;18.20;99.90;;;;;;4824639;29;20475;-78
2021/07/18 03:07:08;;;;;;;2.00;1.43;;;18.30;99.90;;;;;;4815842;29;20537;-78
2021/07/18 03:09:33;;;;;;;1.83;1.73;;;18.20;99.90;;;;;;4825600;29;20492;-78
2021/07/18 03:12:22;;;;;;;1.73;1.50;;;18.20;99.90;;;;;;4804770;29;20452;-78
2021/07/18 03:14:48;;;;;;;1.83;1.73;;;18.20;99.90;;;;;;4808501;29;20219;-78
2021/07/18 03:17:14;;;;;;;3.83;1.63;;;18.10;99.90;;;;;;4820925;29;20463;-78
2021/07/18 03:19:46;;;;;;;1.90;1.67;;;18.10;99.90;;;;;;4797995;29;20472;-78
2021/07/18 03:22:12;;;;;;;2.30;2.07;;;18.00;99.90;;;;;;4822332;29;20235;-78
2021/07/18 03:24:45;;;;;;;2.20;1.87;;;18.00;99.90;;;;;;4796485;29;20582;-78
2021/07/18 03:27:12;;;;;;;2.83;1.90;;;18.00;99.90;;;;;;4793824;29;20468;-78
2021/07/18 03:29:46;;;;;;;2.27;2.07;;;18.00;99.90;;;;;;4808252;29;20484;-78
2021/07/18 03:32:12;;;;;;;2.17;1.97;;;17.90;99.90;;;;;;4813550;29;20495;-78
2021/07/18 03:34:43;;;;;;;1.30;1.30;;;18.00;99.90;;;;;;4825586;29;20475;-78
2021/07/18 03:37:12;;;;;;;6.40;1.83;;;17.90;99.90;;;;;;4802359;29;20242;-77
2021/07/18 03:39:38;;;;;;;3.00;1.67;;;17.90;99.90;;;;;;4793840;29;20491;-79
2021/07/18 03:42:21;;;;;;;4.63;1.90;;;17.90;99.90;;;;;;4798744;29;20276;-78
2021/07/18 03:44:47;;;;;;;2.10;1.90;;;17.90;99.90;;;;;;4792973;29;20232;-78
2021/07/18 03:47:13;;;;;;;2.97;2.10;;;17.90;99.90;;;;;;4778949;29;20502;-78
2021/07/18 03:49:42;;;;;;;3.10;2.17;;;17.80;99.90;;;;;;4799574;29;20231;-78
2021/07/18 03:52:08;;;;;;;1.90;1.60;;;17.80;99.90;;;;;;4804252;29;20617;-77
2021/07/18 03:54:36;;;;;;;2.70;1.90;;;17.90;99.90;;;;;;4796800;29;20543;-78
2021/07/18 03:57:05;;;;;;;3.53;2.43;;;17.90;99.90;;;;;;4791816;29;21133;-78
2021/07/18 03:59:35;;;;;;;4.00;1.80;;;17.90;99.90;;;;;;4797376;29;20669;-78
2021/07/18 04:02:04;;;;;;;1.37;1.27;;;17.80;99.90;;;;;;4824390;29;20633;-79
2021/07/18 04:04:34;;;;;;;2.03;1.83;;;17.90;99.90;;;;;;4807275;29;20477;-79
2021/07/18 04:07:07;;;;;;;2.20;1.87;;;17.90;99.90;;;;;;4792015;29;20448;-78
2021/07/18 04:09:36;;;;;;;1.47;1.37;;;17.90;99.90;;;;;;4806744;29;20496;-78
2021/07/18 04:12:07;;;;;;;2.37;2.17;;;17.90;99.90;;;;;;4800526;29;20971;-79
2021/07/18 04:14:36;;;;;;;2.20;2.00;;;17.90;99.90;;;;;;4808313;29;20516;-78
2021/07/18 04:17:17;;;;;;;2.27;1.80;;;17.90;99.90;;;;;;4804816;29;20483;-78
2021/07/18 04:19:52;;;;;;;1.70;1.60;;;18.00;99.90;;;;;;4810852;29;20496;-78
2021/07/18 04:22:43;;;;;;;2.63;1.90;;;17.90;99.90;;;;;;4798129;29;20476;-78
2021/07/18 04:25:09;;;;;;;3.13;2.00;;;17.90;99.90;;;;;;4800453;29;20231;-78
2021/07/18 04:27:39;;;;;;;1.70;1.60;;;17.80;99.90;;;;;;4808860;29;20673;-77
2021/07/18 04:30:18;;;;;;;2.63;1.93;;;17.80;99.90;;;;;;4785594;29;20472;-78
2021/07/18 04:32:44;;;;;;;1.57;1.47;;;17.80;99.90;;;;;;4808799;29;20547;-78
2021/07/18 04:35:17;;;;;;;2.60;1.90;;;17.80;99.90;;;;;;4798516;29;20476;-78
2021/07/18 04:37:45;;;;;;;2.77;2.00;;;17.80;99.90;;;;;;4801011;29;20516;-78
2021/07/18 04:40:39;;;;;;;1.80;1.70;;;17.80;99.90;;;;;;4813461;29;20473;-78
2021/07/18 04:43:04;;;;;;;2.13;1.93;;;17.80;99.90;;;;;;4793392;29;20456;-79
2021/07/18 04:45:33;;;;;;;1.87;1.77;;;17.80;99.90;;;;;;4812208;29;20484;-78
2021/07/18 04:48:22;;;;;;;;;;;;;;;;;;;;;
2021/07/18 04:51:07;;;;;;;3.10;1.90;;;17.80;99.90;;;;;;4805095;29;20560;-79
2021/07/18 04:53:36;;;;;;;4.10;2.00;;;17.80;99.90;;;;;;4787796;29;20481;-79
2021/07/18 04:56:01;;;;;;;4.13;1.70;;;17.80;99.90;;;;;;4792415;29;20460;-79
2021/07/18 04:58:33;;;;;;;2.00;1.90;;;17.90;99.90;;;;;;4802951;29;20479;-78
2021/07/18 05:01:05;;;;;;;2.10;1.90;;;17.90;99.90;;;;;;4825020;29;20222;-79
2021/07/18 05:03:39;;;;;;;1.83;1.73;;;17.90;99.90;;;;;;4826364;29;20552;-78
2021/07/18 05:06:14;;;;;;;1.77;1.63;;;17.90;99.90;;;;;;4769589;29;21070;-79
2021/07/18 05:08:46;;;;;;;1.90;1.53;;;17.90;99.90;;;;;;4811031;29;20230;-79
2021/07/18 05:11:12;;;;;;;1.70;1.60;;;17.90;99.90;;;;;;4826152;29;20496;-79
2021/07/18 05:13:52;;;;;;;2.53;2.33;;;17.90;99.90;;;;;;4819148;29;20510;-79
2021/07/18 05:16:29;;;;;;;4.23;1.97;;;18.00;99.90;;;;;;4826368;29;21064;-79
2021/07/18 05:19:12;;;;;;;2.03;1.90;;;18.00;99.90;;;;;;4802857;29;20521;-78
2021/07/18 05:21:41;;;;;;;2.63;2.23;;;18.00;99.90;;;;;;4826759;29;20468;-79
2021/07/18 05:24:24;;;;;;;1.77;1.67;;;18.10;99.90;;;;;;4808258;29;20235;-79
2021/07/18 05:26:50;;;;;;;3.20;2.30;;;18.10;99.90;;;;;;4825544;29;20472;-79
2021/07/18 05:29:19;;;;;;;3.17;1.80;;;18.10;99.90;;;;;;4784391;29;20489;-79
2021/07/18 05:31:45;;;;;;;2.40;1.97;;;18.20;99.90;;;;;;4801737;29;20973;-77
2021/07/18 05:34:18;;;;;;;2.03;1.90;;;18.20;99.90;;;;;;4818167;29;20605;-79
2021/07/18 05:36:47;;;;;;;1.87;1.67;;;18.30;99.90;;;;;;4794832;29;20544;-79
2021/07/18 05:39:13;;;;;;;2.67;1.90;;;18.30;99.90;;;;;;4795286;29;20464;-79
2021/07/18 05:41:44;;;;;;;1.83;1.73;;;18.30;99.90;;;;;;4818938;29;20215;-79
2021/07/18 05:44:09;;;;;;;2.10;1.63;;;18.40;99.90;;;;;;4828418;29;20226;-79
2021/07/18 05:46:38;;;;;;;1.50;1.40;;;18.40;99.90;;;;;;4836387;29;20470;-79
2021/07/18 05:49:07;;;;;;;2.67;1.80;;;18.40;99.90;;;;;;4801369;29;20223;-79
2021/07/18 05:51:37;;;;;;;1.50;1.40;;;18.50;99.90;;;;;;4811669;29;20461;-79
2021/07/18 05:54:25;;;;;;;2.40;2.20;;;18.50;99.90;;;;;;4816814;29;20530;-79
2021/07/18 05:56:56;;;;;;;2.67;2.00;;;18.50;99.90;;;;;;4825466;29;20235;-79
2021/07/18 05:59:23;;;;;;;2.20;1.60;;;18.60;99.90;;;;;;4811004;29;20464;-79
2021/07/18 06:01:49;;;;;;;1.43;1.33;;;18.60;99.90;;;;;;4825100;29;20457;-78
2021/07/18 06:04:24;;;;;;;1.80;1.70;;;18.60;99.90;;;;;;4822603;29;20469;-78
2021/07/18 06:06:53;;;;;;;2.07;1.97;;;18.70;99.90;;;;;;4776987;29;20461;-78
2021/07/18 06:09:27;;;;;;;1.97;1.43;;;18.70;99.90;;;;;;4820703;29;20818;-78
2021/07/18 06:12:19;;;;;;;2.50;1.70;;;18.80;99.90;;;;;;4818004;29;20231;-78
2021/07/18 06:14:58;;;;;;;2.40;1.77;;;18.90;99.90;;;;;;4822832;29;20452;-78
2021/07/18 06:17:30;;;;;;;1.83;1.73;;;18.90;99.90;;;;;;4808447;29;20755;-78
2021/07/18 06:19:56;;;;;;;2.00;1.70;;;18.90;99.90;;;;;;4809457;29;20476;-78
2021/07/18 06:22:22;;;;;;;1.73;1.63;;;19.00;99.90;;;;;;4806605;29;20837;-78
2021/07/18 06:24:51;;;;;;;2.03;1.93;;;19.00;99.90;;;;;;4796200;29;20566;-78
2021/07/18 06:27:17;;;;;;;2.17;1.60;;;19.10;99.90;;;;;;4822227;29;20491;-78
2021/07/18 06:29:45;;;;;;;1.60;1.47;;;19.10;99.90;;;;;;4799884;29;20507;-78
2021/07/18 06:32:17;;;;;;;2.00;1.90;;;19.10;99.90;;;;;;4821783;29;20234;-78
2021/07/18 06:34:49;;;;;;;1.70;1.47;;;19.20;99.90;;;;;;4810864;29;20953;-78
2021/07/18 06:37:17;;;;;;;1.67;1.50;;;19.20;99.90;;;;;;4821273;29;20961;-78
2021/07/18 06:39:43;;;;;;;4.10;1.97;;;19.30;99.90;;;;;;4812225;29;20467;-78
2021/07/18 06:42:44;;;;;;;1.97;1.80;;;19.30;99.90;;;;;;4814337;29;20236;-77
2021/07/18 06:45:25;;;;;;;2.03;1.70;;;19.40;99.90;;;;;;4781557;29;20467;-77
2021/07/18 06:48:16;;;;;;;1.50;1.40;;;19.40;99.90;;;;;;4790894;29;21040;-78
2021/07/18 06:50:42;;;;;;;2.87;1.50;;;19.60;99.90;;;;;;4803935;29;20480;-78
2021/07/18 06:53:39;;;;;;;1.90;1.80;;;19.60;99.90;;;;;;4800058;29;20472;-77
2021/07/18 06:56:32;;;;;;;1.43;1.23;;;19.60;99.90;;;;;;4816427;29;20841;-77
2021/07/18 06:59:07;;;;;;;1.50;1.40;;;19.70;99.90;;;;;;4833988;29;20507;-77
2021/07/18 07:01:51;;;;;;;2.13;1.80;;;19.70;99.90;;;;;;4804043;29;20513;-77
2021/07/18 07:04:17;;;;;;;1.83;1.73;;;19.80;99.90;;;;;;4797751;29;21052;-77
2021/07/18 07:06:46;;;;;;;4.30;1.60;;;19.90;99.90;;;;;;4798096;29;20489;-77
2021/07/18 07:09:53;;;;;;;1.83;1.73;;;20.00;99.90;;;;;;4793451;29;20701;-78
2021/07/18 07:12:52;;;;;;;3.43;1.47;;;20.10;99.90;;;;;;4775801;29;20477;-77
2021/07/18 07:15:24;;;;;;;2.20;1.50;;;20.10;99.90;;;;;;4791150;29;20461;-78
2021/07/18 07:21:32;;;;;;;3.00;1.63;;;20.20;99.90;;;;;;4812669;29;20575;-78
2021/07/18 07:24:51;;;;;;;3.67;1.30;;;20.30;99.90;;;;;;4777492;29;21036;-78
2021/07/18 07:26:58;;;;;;;1.37;1.20;;;20.30;99.90;;;;;;4808077;29;20235;-78
2021/07/18 07:30:19;;;;;;;2.43;1.90;;;20.40;99.90;;;;;;4805187;29;20464;-77
2021/07/18 07:32:46;;;;;;;1.53;1.40;;;20.50;99.90;;;;;;4809100;29;20475;-78
2021/07/18 07:35:40;;;;;;;2.80;1.63;;;20.50;99.90;;;;;;4769283;29;20469;-77
2021/07/18 07:38:07;;;;;;;1.47;1.37;;;20.60;99.90;;;;;;4817611;29;21119;-77
2021/07/18 07:40:33;;;;;;;1.30;1.20;;;20.80;99.90;;;;;;4795358;29;20840;-77
2021/07/18 07:42:59;;;;;;;1.63;1.43;;;20.90;99.90;;;;;;4810019;29;20476;-77
2021/07/18 07:45:25;;;;;;;1.00;1.00;;;20.80;99.90;;;;;;4809992;29;20712;-77
2021/07/18 07:47:51;;;;;;;1.27;1.17;;;20.90;99.90;;;;;;4826140;29;20604;-77
2021/07/18 07:50:32;;;;;;;1.67;1.57;;;21.00;99.90;;;;;;4829097;29;20238;-77
2021/07/18 07:53:02;;;;;;;1.50;1.40;;;21.10;99.90;;;;;;4808718;29;20242;-77
2021/07/18 07:55:29;;;;;;;1.93;1.47;;;21.20;99.90;;;;;;4825258;29;20482;-77
2021/07/18 07:57:55;;;;;;;1.90;1.80;;;21.30;99.90;;;;;;4823179;29;20460;-77
2021/07/18 08:00:22;;;;;;;1.90;1.70;;;21.30;99.90;;;;;;4817302;29;20479;-77
2021/07/18 08:02:49;;;;;;;1.30;1.20;;;21.40;99.90;;;;;;4808689;29;20472;-77
2021/07/18 08:05:16;;;;;;;2.40;1.80;;;21.40;99.90;;;;;;4793143;29;20469;-77
2021/07/18 08:07:42;;;;;;;1.40;1.30;;;21.40;99.90;;;;;;4810440;29;20496;-78
2021/07/18 08:10:13;;;;;;;1.40;1.30;;;21.50;99.90;;;;;;4807885;29;20464;-78
2021/07/18 08:12:39;;;;;;;3.00;1.10;;;21.50;99.90;;;;;;4809971;29;20560;-78
2021/07/18 08:15:07;;;;;;;1.50;1.33;;;21.70;99.90;;;;;;4806088;29;20809;-77
2021/07/18 08:17:34;;;;;;;2.70;1.70;;;21.80;99.90;;;;;;4815599;29;20563;-78
2021/07/18 08:20:14;;;;;;;1.47;1.40;;;21.80;99.90;;;;;;4816169;29;20472;-78
2021/07/18 08:22:45;;;;;;;1.40;1.30;;;21.80;99.90;;;;;;4809777;29;20468;-78
2021/07/18 08:25:13;;;;;;;1.83;1.73;;;22.00;99.90;;;;;;4794192;29;20886;-77
2021/07/18 08:27:43;;;;;;;1.30;1.20;;;22.10;99.90;;;;;;4796497;29;20485;-78
2021/07/18 08:30:18;;;;;;;1.40;1.30;;;22.10;99.90;;;;;;4817128;29;20506;-78
2021/07/18 08:32:51;;;;;;;1.50;1.40;;;22.10;99.90;;;;;;4804734;29;21016;-78
2021/07/18 08:36:07;;;;;;;1.60;1.50;;;22.30;99.90;;;;;;4784073;29;20476;-80
2021/07/18 08:38:43;;;;;;;1.60;1.50;;;22.40;99.90;;;;;;4816472;29;20468;-80
2021/07/18 08:41:22;;;;;;;1.93;1.20;;;22.40;99.90;;;;;;4783986;29;20460;-80
2021/07/18 08:43:48;;;;;;;2.73;1.60;;;22.40;99.90;;;;;;4812517;29;20473;-80
2021/07/18 08:46:50;;;;;;;1.50;1.40;;;22.50;99.90;;;;;;4810414;29;20481;-80
2021/07/18 08:49:46;;;;;;;1.50;1.40;;;22.50;99.90;;;;;;4826575;29;20472;-81
2021/07/18 08:52:32;;;;;;;;;;;;;;;;;;;;;
2021/07/18 08:55:11;;;;;;;1.23;1.10;;;22.70;99.90;;;;;;4803848;29;20453;-80
2021/07/18 08:57:38;;;;;;;1.60;0.90;;;22.80;99.90;;;;;;4810854;29;20539;-78
2021/07/18 09:01:01;;;;;;;;;;;;;;;;;;;;;
2021/07/18 09:07:10;;;;;;;1.80;1.20;;;23.00;99.90;;;;;;4822772;29;20482;-77
2021/07/18 09:09:36;;;;;;;1.50;1.40;;;23.10;99.90;;;;;;4805730;29;20488;-78
2021/07/18 09:15:21;;;;;;;3.33;1.33;;;23.10;99.90;;;;;;4836956;29;20467;-78
2021/07/18 09:17:47;;;;;;;1.20;1.10;;;23.20;99.90;;;;;;4793335;29;20468;-79
2021/07/18 09:20:46;;;;;;;1.70;1.60;;;23.20;99.90;;;;;;4822126;29;20475;-79
2021/07/18 09:23:44;;;;;;;2.07;1.30;;;23.40;99.90;;;;;;4826648;29;20468;-79
2021/07/18 09:26:22;;;;;;;1.63;1.40;;;23.40;99.90;;;;;;4793038;29;20626;-78
2021/07/18 09:28:49;;;;;;;1.33;1.23;;;23.60;99.90;;;;;;4783248;29;20472;-79
2021/07/18 09:31:38;;;;;;;1.63;1.30;;;23.70;99.90;;;;;;4810125;29;20473;-79
2021/07/18 09:34:14;;;;;;;5.23;1.50;;;23.70;99.90;;;;;;4801933;29;20515;-78
2021/07/18 09:36:45;;;;;;;1.80;1.70;;;23.80;99.90;;;;;;4804313;29;20520;-78
2021/07/18 09:39:16;;;;;;;1.57;1.33;;;23.80;99.90;;;;;;4811828;29;20471;-79
2021/07/18 09:41:49;;;;;;;1.50;1.40;;;23.80;99.90;;;;;;4818366;29;20499;-79
2021/07/18 09:44:16;;;;;;;3.03;1.27;;;23.90;99.90;;;;;;4821091;29;20467;-79
2021/07/18 09:47:09;;;;;;;1.50;1.40;;;23.90;99.90;;;;;;4814770;29;20477;-79
2021/07/18 09:49:41;;;;;;;3.07;1.40;;;24.20;99.90;;;;;;4803455;29;20798;-79
2021/07/18 09:52:36;;;;;;;1.90;1.50;;;24.20;99.90;;;;;;4795498;29;20505;-78
2021/07/18 09:55:18;;;;;;;1.27;1.23;;;24.50;99.90;;;;;;4814971;29;20830;-77
2021/07/18 09:58:05;;;;;;;3.73;1.30;;;24.60;99.90;;;;;;4810088;29;20451;-79
2021/07/18 10:00:45;;;;;;;1.00;1.00;;;24.60;99.90;;;;;;4824939;29;20479;-79
2021/07/18 10:03:22;;;;;;;1.40;1.30;;;24.80;99.90;;;;;;4806966;29;20538;-78
2021/07/18 10:06:18;;;;;;;2.10;1.97;;;24.70;99.90;;;;;;4787157;29;20554;-78
2021/07/18 10:08:52;;;;;;;1.97;1.40;;;24.60;99.90;;;;;;4806132;29;20520;-78
2021/07/18 10:11:20;;;;;;;5.37;1.60;;;24.60;99.90;;;;;;4796985;29;20491;-79
2021/07/18 10:13:48;;;;;;;2.27;1.60;;;24.80;99.90;;;;;;4805978;29;20471;-79
2021/07/18 10:16:16;;;;;;;2.13;2.00;;;24.80;99.90;;;;;;4825179;29;20471;-79
2021/07/18 10:18:47;;;;;;;1.40;1.30;;;24.90;99.90;;;;;;4825010;29;20988;-79
2021/07/18 10:21:19;;;;;;;1.60;1.13;;;25.00;99.90;;;;;;4818627;29;20479;-79
2021/07/18 10:23:47;;;;;;;1.20;1.10;;;25.20;99.90;;;;;;4825513;29;21008;-79
2021/07/18 10:26:26;;;;;;;1.20;1.10;;;25.30;99.90;;;;;;4809041;29;20467;-79
2021/07/18 10:28:54;;;;;;;1.37;1.30;;;25.00;99.90;;;;;;4793200;29;20464;-79
2021/07/18 10:31:49;;;;;;;1.90;1.30;;;25.10;99.90;;;;;;4825061;29;20544;-79
2021/07/18 10:34:19;;;;;;;1.90;1.60;;;25.20;99.90;;;;;;4803633;29;21294;-79
2021/07/18 10:36:49;;;;;;;2.17;1.67;;;25.30;99.90;;;;;;4823661;29;21008;-76
2021/07/18 10:39:36;;;;;;;1.30;1.20;;;25.40;99.90;;;;;;4824187;29;20464;-79
2021/07/18 10:42:05;;;;;;;1.53;1.30;;;25.40;99.90;;;;;;4822543;29;20913;-79
2021/07/18 10:44:43;;;;;;;1.37;1.30;;;25.50;99.90;;;;;;4824579;29;20900;-78
2021/07/18 10:47:48;;;;;;;;;;;;;;;;;;;;;
2021/07/18 10:50:54;;;;;;;1.40;1.30;;;25.50;99.90;;;;;;4805762;29;20838;-79
2021/07/18 10:54:20;;;;;;;1.60;1.47;;;25.80;99.90;;;;;;4810462;29;20480;-79
2021/07/18 10:56:59;;;;;;;1.40;1.30;;;25.80;99.90;;;;;;4804439;29;20479;-79
2021/07/18 11:00:03;;;;;;;1.90;1.40;;;25.90;99.90;;;;;;4797184;29;20466;-79
2021/07/18 11:03:07;;;;;;;1.67;1.57;;;26.00;99.90;;;;;;4812462;29;20478;-78
2021/07/18 11:06:19;;;;;;;1.37;1.27;;;25.90;99.90;;;;;;4804158;29;20475;-78
2021/07/18 11:09:11;;;;;;;4.13;1.47;;;26.00;99.90;;;;;;4799278;29;20617;-78
2021/07/18 11:12:28;;;;;;;2.80;1.73;;;26.20;99.90;;;;;;4812143;29;20887;-78
2021/07/18 11:15:24;;;;;;;1.43;1.33;;;26.00;99.90;;;;;;4824707;29;20466;-79
2021/07/18 11:18:45;;;;;;;2.33;1.50;;;26.00;99.90;;;;;;4778918;29;20473;-79
2021/07/18 11:21:29;;;;;;;1.67;1.50;;;26.00;99.90;;;;;;4739631;29;20522;-79
2021/07/18 11:24:02;;;;;;;1.60;1.50;;;26.20;99.90;;;;;;4801628;29;20467;-79
2021/07/18 11:27:03;;;;;;;4.50;1.60;;;26.30;99.90;;;;;;4820337;29;20463;-79
2021/07/18 11:29:37;;;;;;;3.37;1.87;;;26.20;99.90;;;;;;4799841;29;21085;-78
2021/07/18 11:32:41;;;;;;;2.90;1.47;;;26.20;99.90;;;;;;4824923;29;20462;-76
2021/07/18 11:35:23;;;;;;;3.23;1.67;;;26.30;99.90;;;;;;4769080;29;20496;-78
2021/07/18 11:37:55;;;;;;;2.00;1.90;;;26.30;99.90;;;;;;4818458;29;20491;-78
2021/07/18 11:40:34;;;;;;;1.37;1.27;;;26.30;99.90;;;;;;4826708;29;20826;-78
2021/07/18 11:43:03;;;;;;;1.50;1.40;;;26.20;99.90;;;;;;4793361;29;20483;-79
2021/07/18 11:45:35;;;;;;;2.27;1.90;;;26.30;99.90;;;;;;4811124;29;20588;-78
2021/07/18 11:48:04;;;;;;;1.87;1.67;;;26.40;99.90;;;;;;4825101;29;20463;-79
2021/07/18 11:50:31;;;;;;;1.80;1.70;;;26.60;99.90;;;;;;4827230;29;20472;-78
2021/07/18 11:53:23;;;;;;;2.20;2.00;;;26.60;99.90;;;;;;4807992;29;20480;-78
2021/07/18 11:55:51;;;;;;;1.80;1.70;;;26.70;99.90;;;;;;4817544;29;20988;-79
2021/07/18 11:58:28;;;;;;;1.70;1.60;;;26.60;99.90;;;;;;4798774;29;20489;-78
2021/07/18 12:00:56;;;;;;;2.13;1.93;;;26.80;99.90;;;;;;4804278;29;20977;-78
2021/07/18 12:03:24;;;;;;;3.63;1.93;;;27.00;99.90;;;;;;4809493;29;20475;-78
2021/07/18 12:06:46;;;;;;;1.73;1.63;;;26.90;99.90;;;;;;4795629;29;20478;-78
2021/07/18 12:09:15;;;;;;;4.73;1.97;;;27.00;99.90;;;;;;4808249;29;20471;-78
2021/07/18 12:11:43;;;;;;;2.37;1.90;;;27.10;99.90;;;;;;4803094;29;20468;-79
2021/07/18 12:14:10;;;;;;;2.70;2.30;;;27.10;99.90;;;;;;4801725;29;20467;-79
2021/07/18 12:16:38;;;;;;;4.63;1.70;;;27.20;99.90;;;;;;4811996;29;20540;-79
2021/07/18 12:19:08;;;;;;;1.70;1.60;;;27.20;99.90;;;;;;4802126;29;20495;-79
2021/07/18 12:21:40;;;;;;;2.80;2.37;;;27.10;99.90;;;;;;4816870;29;20478;-79
2021/07/18 12:24:21;;;;;;;2.60;1.87;;;27.20;99.90;;;;;;4814994;29;20464;-78
2021/07/18 12:27:33;;;;;;;4.07;2.20;;;27.30;99.90;;;;;;4813917;29;20523;-78
2021/07/18 12:30:05;;;;;;;2.17;1.97;;;27.20;99.90;;;;;;4802401;29;20937;-79
2021/07/18 12:32:33;;;;;;;3.60;2.60;;;27.30;99.90;;;;;;4822653;29;20488;-78
2021/07/18 12:35:00;;;;;;;2.47;2.23;;;27.30;99.90;;;;;;4800077;29;21047;-78
2021/07/18 12:37:30;;;;;;;2.50;2.30;;;27.50;99.90;;;;;;4839033;29;20568;-78
2021/07/18 12:40:02;;;;;;;2.33;1.90;;;27.70;99.90;;;;;;4817746;29;20492;-78
2021/07/18 12:42:36;;;;;;;2.10;2.00;;;27.80;99.90;;;;;;4815964;29;20492;-78
2021/07/18 12:45:12;;;;;;;2.30;2.10;;;27.60;99.90;;;;;;4813628;29;20504;-79
2021/07/18 12:47:45;;;;;;;2.00;1.77;;;27.70;99.90;;;;;;4800195;29;20482;-78
2021/07/18 12:50:31;;;;;;;1.83;1.73;;;27.70;99.90;;;;;;4815401;29;20484;-78
2021/07/18 12:53:11;;;;;;;2.00;1.90;;;27.60;99.90;;;;;;4805363;29;20567;-79
2021/07/18 12:55:57;;;;;;;2.20;1.70;;;27.50;99.90;;;;;;4822747;29;20472;-78
2021/07/18 12:58:35;;;;;;;2.20;2.00;;;27.80;99.90;;;;;;4802931;29;20469;-78
2021/07/18 13:01:13;;;;;;;2.10;2.00;;;27.80;99.90;;;;;;4806367;29;20512;-78
2021/07/18 13:04:04;;;;;;;2.40;2.20;;;27.80;99.90;;;;;;4809648;29;20495;-78
2021/07/18 13:06:46;;;;;;;1.83;1.73;;;27.70;99.90;;;;;;4801966;29;20468;-78
2021/07/18 13:09:24;;;;;;;2.53;2.33;;;27.50;99.90;;;;;;4807942;29;20488;-78
2021/07/18 13:11:55;;;;;;;2.23;2.00;;;27.70;99.90;;;;;;4808450;29;20474;-78
2021/07/18 13:14:30;;;;;;;1.83;1.73;;;28.00;99.90;;;;;;4821058;29;20498;-78
2021/07/18 13:17:26;;;;;;;2.20;2.00;;;28.10;99.90;;;;;;4796907;29;20988;-78
2021/07/18 13:20:00;;;;;;;2.67;2.47;;;28.20;99.90;;;;;;4804463;29;20841;-78
2021/07/18 13:22:28;;;;;;;2.70;2.50;;;28.20;99.90;;;;;;4795417;29;20475;-78
2021/07/18 13:24:54;;;;;;;4.67;2.37;;;28.20;99.90;;;;;;4816644;29;20499;-78
2021/07/18 13:27:22;;;;;;;2.70;2.50;;;28.30;99.90;;;;;;4819986;29;21012;-78
2021/07/18 13:30:04;;;;;;;2.40;2.20;;;28.20;99.90;;;;;;4807287;29;20638;-78
2021/07/18 13:32:38;;;;;;;3.30;2.33;;;28.20;99.90;;;;;;4810311;29;20474;-78
2021/07/18 13:35:22;;;;;;;2.90;2.37;;;28.30;99.90;;;;;;4823643;29;20460;-78
2021/07/18 13:37:56;;;;;;;2.57;2.37;;;28.50;99.90;;;;;;4806480;29;20469;-78
2021/07/18 13:40:26;;;;;;;2.30;2.20;;;28.60;99.90;;;;;;4811562;29;21081;-78
2021/07/18 13:43:14;;;;;;;2.50;2.30;;;28.50;99.90;;;;;;4801904;29;20467;-78
2021/07/18 13:45:49;;;;;;;2.60;2.40;;;28.50;99.90;;;;;;4822761;29;20456;-81
2021/07/18 13:48:20;;;;;;;2.30;2.20;;;28.50;99.90;;;;;;4805757;29;20307;-78
2021/07/18 13:50:46;;;;;;;4.20;2.80;;;28.20;99.90;;;;;;4824040;29;20230;-78
2021/07/18 13:53:12;;;;;;;3.00;2.70;;;28.20;99.90;;;;;;4823992;29;20472;-78
2021/07/18 13:55:39;;;;;;;2.50;2.30;;;28.30;99.90;;;;;;4815426;29;20581;-78
2021/07/18 13:58:06;;;;;;;3.57;2.77;;;28.40;99.90;;;;;;4808422;29;21268;-78
2021/07/18 14:00:32;;;;;;;3.13;2.60;;;28.60;99.90;;;;;;4809401;29;20479;-78
2021/07/18 14:02:58;;;;;;;2.93;2.63;;;28.70;99.90;;;;;;4808617;29;20468;-78
2021/07/18 14:05:24;;;;;;;2.50;2.30;;;28.50;99.90;;;;;;4793502;29;20471;-78